Time;durP1;ratioP1;P1;durP2;ratioP2;P2;SDS_P1;SDS_P2;PMS_P1;PMS_P2;Temp;Humidity;BMP_temperature;BMP_pressure;BME280_temperature;BME280_humidity;BME280_pressure;Samples;Min_cycle;Max_cycle;Signal;HPM_P1;HPM_P2
2023/10/15 00:01:53;;;;;;;8.02;5.05;;;;;;;;;;5100281;27;20016;-64
2023/10/15 00:04:22;;;;;;;9.00;4.00;;;;;;;;;;5103127;28;20073;-65
2023/10/15 00:06:48;;;;;;;7.47;3.80;;;;;;;;;;5088659;28;20569;-65
2023/10/15 00:09:15;;;;;;;7.70;5.60;;;;;;;;;;5104062;27;20800;-64
2023/10/15 00:11:43;;;;;;;6.28;4.25;;;;;;;;;;5093878;28;20055;-65
2023/10/15 00:14:09;;;;;;;9.13;3.95;;;;;;;;;;5096168;28;20055;-65
2023/10/15 00:16:35;;;;;;;5.40;3.80;;;;;;;;;;5100511;28;20046;-66
2023/10/15 00:19:10;;;;;;;8.65;4.10;;;;;;;;;;5090258;28;20436;-64
2023/10/15 00:21:37;;;;;;;8.82;4.70;;;;;;;;;;5099645;28;20411;-65
2023/10/15 00:24:06;;;;;;;8.73;5.07;;;;;;;;;;5095723;27;20244;-65
2023/10/15 00:26:34;;;;;;;10.90;4.13;;;;;;;;;;5100225;28;20039;-65
2023/10/15 00:29:01;;;;;;;4.93;4.00;;;;;;;;;;5098808;28;20457;-64
2023/10/15 00:31:28;;;;;;;6.57;3.63;;;;;;;;;;5095641;28;20039;-65
2023/10/15 00:33:54;;;;;;;4.00;3.15;;;;;;;;;;5097796;28;20084;-65
2023/10/15 00:36:20;;;;;;;6.88;3.55;;;;;;;;;;5098242;28;20020;-65
2023/10/15 00:38:46;;;;;;;6.53;3.63;;;;;;;;;;5097591;28;20075;-65
2023/10/15 00:41:13;;;;;;;21.05;9.68;;;;;;;;;;5102650;27;20028;-65
2023/10/15 00:43:55;;;;;;;9.50;6.75;;;;;;;;;;5101504;28;20019;-65
2023/10/15 00:46:23;;;;;;;8.82;5.05;;;;;;;;;;5095865;28;20031;-65
2023/10/15 00:48:49;;;;;;;9.27;5.18;;;;;;;;;;5103529;28;20055;-65
2023/10/15 00:51:17;;;;;;;9.68;5.47;;;;;;;;;;5115004;27;20029;-66
2023/10/15 00:53:54;;;;;;;5.68;3.78;;;;;;;;;;5097867;28;20031;-65
2023/10/15 00:56:24;;;;;;;8.77;5.75;;;;;;;;;;5098252;27;20141;-64
2023/10/15 01:03:50;;;;;;;9.57;4.60;;;;;;;;;;5101384;27;20029;-64
2023/10/15 01:06:30;;;;;;;6.65;4.15;;;;;;;;;;5098774;27;20028;-64
2023/10/15 01:09:09;;;;;;;7.03;3.70;;;;;;;;;;5101459;27;20135;-65
2023/10/15 01:11:36;;;;;;;6.35;3.95;;;;;;;;;;5100787;28;20032;-65
2023/10/15 01:14:03;;;;;;;5.25;3.78;;;;;;;;;;5100425;27;20023;-65
2023/10/15 01:16:31;;;;;;;7.38;3.60;;;;;;;;;;5103788;27;20414;-64
2023/10/15 01:19:06;;;;;;;7.55;3.95;;;;;;;;;;5093296;28;20329;-65
2023/10/15 01:21:32;;;;;;;8.43;3.60;;;;;;;;;;5089864;28;20059;-65
2023/10/15 01:24:04;;;;;;;5.85;3.17;;;;;;;;;;5100276;27;20012;-64
2023/10/15 01:26:36;;;;;;;5.03;4.03;;;;;;;;;;5099730;27;20039;-65
2023/10/15 01:29:05;;;;;;;5.03;3.30;;;;;;;;;;5096977;27;20039;-64
2023/10/15 01:31:40;;;;;;;4.68;3.65;;;;;;;;;;5100144;28;20805;-64
2023/10/15 01:34:09;;;;;;;5.78;3.22;;;;;;;;;;5096358;28;20100;-64
2023/10/15 01:36:38;;;;;;;5.13;3.30;;;;;;;;;;5098801;28;20028;-64
2023/10/15 01:39:12;;;;;;;9.35;4.03;;;;;;;;;;5104303;27;20085;-64
2023/10/15 01:41:42;;;;;;;6.10;3.40;;;;;;;;;;5097268;28;20031;-65
2023/10/15 01:44:10;;;;;;;7.95;3.22;;;;;;;;;;5095284;28;20088;-65
2023/10/15 01:46:44;;;;;;;4.05;2.92;;;;;;;;;;5097362;27;20788;-65
2023/10/15 01:49:16;;;;;;;3.25;2.92;;;;;;;;;;5098086;27;20304;-65
2023/10/15 01:51:44;;;;;;;3.78;2.92;;;;;;;;;;5094230;28;20027;-65
2023/10/15 01:54:12;;;;;;;7.55;3.40;;;;;;;;;;5102900;28;20020;-65
2023/10/15 01:56:38;;;;;;;5.13;2.45;;;;;;;;;;5095564;28;20023;-64
2023/10/15 01:59:08;;;;;;;5.47;3.13;;;;;;;;;;5099225;28;20474;-64
2023/10/15 02:01:40;;;;;;;6.28;3.13;;;;;;;;;;5099532;28;20024;-64
2023/10/15 02:04:29;;;;;;;6.35;3.30;;;;;;;;;;5101158;28;20030;-64
2023/10/15 02:06:55;;;;;;;6.22;3.10;;;;;;;;;;5095641;28;20516;-64
2023/10/15 02:09:22;;;;;;;7.03;3.22;;;;;;;;;;5098371;28;20039;-64
2023/10/15 02:11:48;;;;;;;6.25;2.97;;;;;;;;;;5097638;28;20089;-64
2023/10/15 02:14:27;;;;;;;5.50;3.20;;;;;;;;;;5100308;27;20102;-65
2023/10/15 02:16:54;;;;;;;4.47;2.92;;;;;;;;;;5098711;28;20028;-65
2023/10/15 02:19:40;;;;;;;5.93;3.40;;;;;;;;;;5093919;28;20063;-65
2023/10/15 02:22:07;;;;;;;3.60;2.63;;;;;;;;;;5098645;28;20062;-65
2023/10/15 02:24:34;;;;;;;4.40;2.85;;;;;;;;;;5100953;28;20031;-66
2023/10/15 02:27:05;;;;;;;6.95;3.13;;;;;;;;;;5100392;28;20586;-68
2023/10/15 02:32:06;;;;;;;5.40;2.88;;;;;;;;;;5099240;28;20506;-67
2023/10/15 02:34:32;;;;;;;7.55;2.90;;;;;;;;;;5098919;28;20039;-66
2023/10/15 02:37:03;;;;;;;5.75;2.92;;;;;;;;;;5097244;28;20583;-66
2023/10/15 02:39:36;;;;;;;6.72;2.92;;;;;;;;;;5098954;28;20104;-66
2023/10/15 02:42:03;;;;;;;5.43;3.22;;;;;;;;;;5100906;27;20023;-66
2023/10/15 02:44:32;;;;;;;5.68;2.97;;;;;;;;;;5097726;28;20036;-66
2023/10/15 02:49:53;;;;;;;6.07;3.20;;;;;;;;;;5100935;28;20104;-64
2023/10/15 02:52:19;;;;;;;3.10;2.70;;;;;;;;;;5097011;28;20487;-65
2023/10/15 02:54:46;;;;;;;7.03;2.97;;;;;;;;;;5091270;28;20035;-65
2023/10/15 02:57:16;;;;;;;4.00;2.83;;;;;;;;;;5103610;27;20042;-64
2023/10/15 02:59:50;;;;;;;7.13;2.70;;;;;;;;;;5102932;28;20046;-64
2023/10/15 03:02:19;;;;;;;4.25;2.72;;;;;;;;;;5104608;27;20023;-64
2023/10/15 03:04:51;;;;;;;7.25;3.20;;;;;;;;;;5100547;28;20500;-65
2023/10/15 03:07:19;;;;;;;4.45;2.92;;;;;;;;;;5103567;28;20514;-64
2023/10/15 03:09:56;;;;;;;6.15;3.10;;;;;;;;;;5103866;28;20500;-64
2023/10/15 03:12:23;;;;;;;6.57;3.25;;;;;;;;;;5107519;28;20483;-64
2023/10/15 03:14:49;;;;;;;4.78;2.97;;;;;;;;;;5103886;28;20038;-64
2023/10/15 03:17:24;;;;;;;6.10;3.10;;;;;;;;;;5100919;28;20027;-64
2023/10/15 03:19:52;;;;;;;5.57;3.03;;;;;;;;;;5105547;28;20065;-65
2023/10/15 03:22:23;;;;;;;5.03;3.05;;;;;;;;;;5106456;27;20490;-65
2023/10/15 03:24:49;;;;;;;5.78;2.95;;;;;;;;;;5094581;28;20020;-64
2023/10/15 03:27:17;;;;;;;4.60;3.25;;;;;;;;;;5096724;28;20050;-64
2023/10/15 03:29:43;;;;;;;4.15;2.95;;;;;;;;;;5109086;27;20039;-65
2023/10/15 03:32:11;;;;;;;6.22;2.83;;;;;;;;;;5104807;28;20028;-65
2023/10/15 03:34:47;;;;;;;5.10;4.10;;;;;;;;;;5099050;28;20539;-64
2023/10/15 03:37:16;;;;;;;7.03;3.00;;;;;;;;;;5100973;27;20036;-64
2023/10/15 03:39:54;;;;;;;5.45;2.60;;;;;;;;;;5105539;27;20147;-64
2023/10/15 03:42:26;;;;;;;5.47;2.55;;;;;;;;;;5100620;28;20387;-64
2023/10/15 03:45:06;;;;;;;4.78;2.95;;;;;;;;;;5099230;27;20028;-68
2023/10/15 03:47:32;;;;;;;3.97;2.90;;;;;;;;;;5103525;27;20108;-64
2023/10/15 03:50:08;;;;;;;5.40;2.70;;;;;;;;;;5100287;28;20031;-64
2023/10/15 03:52:34;;;;;;;7.50;2.88;;;;;;;;;;5118353;27;20693;-64
2023/10/15 03:55:00;;;;;;;5.60;2.92;;;;;;;;;;5102141;27;20070;-65
2023/10/15 03:57:27;;;;;;;2.80;2.33;;;;;;;;;;5106370;28;20051;-64
2023/10/15 03:59:55;;;;;;;4.05;2.88;;;;;;;;;;5098190;28;20375;-65
2023/10/15 04:02:39;;;;;;;4.35;3.03;;;;;;;;;;5103687;27;20452;-65
2023/10/15 04:05:12;;;;;;;5.22;3.45;;;;;;;;;;5106581;27;20459;-64
2023/10/15 04:07:48;;;;;;;3.25;2.22;;;;;;;;;;5102655;28;20016;-64
2023/10/15 04:10:14;;;;;;;;;;;;;;;;;;5102258;28;20035;-65
2023/10/15 04:12:43;;;;;;;3.38;2.47;;;;;;;;;;5106261;28;19911;-64
2023/10/15 04:15:16;;;;;;;3.80;2.90;;;;;;;;;;5105076;27;20060;-64
2023/10/15 04:17:48;;;;;;;6.60;2.70;;;;;;;;;;5105842;28;20031;-65
2023/10/15 04:20:58;;;;;;;8.73;3.30;;;;;;;;;;5104956;27;20110;-64
2023/10/15 04:23:03;;;;;;;5.93;3.40;;;;;;;;;;5082523;28;20110;-64
2023/10/15 04:25:33;;;;;;;6.07;3.00;;;;;;;;;;5102588;27;20047;-64
2023/10/15 04:28:16;;;;;;;8.25;2.85;;;;;;;;;;5101402;28;20041;-64
2023/10/15 04:30:46;;;;;;;3.90;2.70;;;;;;;;;;5102338;28;20113;-68
2023/10/15 04:33:15;;;;;;;4.35;3.33;;;;;;;;;;5105051;27;20032;-65
2023/10/15 04:35:41;;;;;;;3.92;2.60;;;;;;;;;;5104946;28;20758;-64
2023/10/15 04:38:07;;;;;;;7.18;3.05;;;;;;;;;;5099429;28;20027;-64
2023/10/15 04:40:59;;;;;;;5.07;3.05;;;;;;;;;;5104770;27;20047;-64
2023/10/15 04:43:26;;;;;;;5.53;3.20;;;;;;;;;;5104651;28;20027;-65
2023/10/15 04:45:56;;;;;;;3.92;2.95;;;;;;;;;;5101179;28;20367;-64
2023/10/15 04:48:33;;;;;;;8.52;2.78;;;;;;;;;;5099629;28;20038;-64
2023/10/15 04:51:11;;;;;;;7.28;3.30;;;;;;;;;;5097601;28;20399;-64
2023/10/15 04:53:39;;;;;;;4.38;2.85;;;;;;;;;;5101950;28;20454;-68
2023/10/15 04:56:05;;;;;;;3.97;2.88;;;;;;;;;;5093982;28;20039;-65
2023/10/15 04:58:31;;;;;;;5.90;2.90;;;;;;;;;;5103659;27;20504;-69
2023/10/15 05:00:59;;;;;;;3.83;3.15;;;;;;;;;;5105491;28;20040;-65
2023/10/15 05:03:25;;;;;;;4.53;2.60;;;;;;;;;;5097743;28;21011;-64
2023/10/15 05:05:51;;;;;;;5.93;2.80;;;;;;;;;;5102592;28;20027;-68
2023/10/15 05:08:17;;;;;;;5.88;2.80;;;;;;;;;;5103149;28;20024;-66
2023/10/15 05:10:45;;;;;;;3.58;2.83;;;;;;;;;;5100489;28;20031;-65
2023/10/15 05:13:12;;;;;;;4.93;3.20;;;;;;;;;;5104891;27;20064;-65
2023/10/15 05:15:39;;;;;;;6.50;3.20;;;;;;;;;;5097262;28;20497;-66
2023/10/15 05:18:05;;;;;;;4.30;3.13;;;;;;;;;;5104223;28;20742;-67
2023/10/15 05:20:32;;;;;;;5.22;3.03;;;;;;;;;;5099498;28;20404;-66
2023/10/15 05:22:58;;;;;;;5.15;3.22;;;;;;;;;;5100765;28;20024;-66
2023/10/15 05:25:24;;;;;;;5.35;2.75;;;;;;;;;;5096779;27;20027;-66
2023/10/15 05:27:50;;;;;;;5.47;2.80;;;;;;;;;;5095097;28;20024;-67
2023/10/15 05:30:16;;;;;;;3.72;2.60;;;;;;;;;;5094154;28;20417;-66
2023/10/15 05:32:48;;;;;;;4.80;2.70;;;;;;;;;;5097580;28;20054;-66
2023/10/15 05:35:17;;;;;;;4.43;3.30;;;;;;;;;;5095465;27;20023;-66
2023/10/15 05:37:44;;;;;;;4.43;2.80;;;;;;;;;;5097499;28;20051;-66
2023/10/15 05:40:15;;;;;;;5.15;3.13;;;;;;;;;;5098051;27;20472;-66
2023/10/15 05:42:42;;;;;;;6.05;3.13;;;;;;;;;;5096212;28;20066;-66
2023/10/15 05:45:09;;;;;;;3.70;2.70;;;;;;;;;;5093897;28;20069;-65
2023/10/15 05:47:35;;;;;;;4.55;2.58;;;;;;;;;;5095743;28;20081;-66
2023/10/15 05:50:04;;;;;;;4.47;2.47;;;;;;;;;;5097578;28;20110;-65
2023/10/15 05:52:30;;;;;;;7.82;3.38;;;;;;;;;;5099684;27;20032;-65
2023/10/15 05:54:56;;;;;;;7.80;2.70;;;;;;;;;;5096710;28;20111;-65
2023/10/15 05:57:23;;;;;;;5.05;2.95;;;;;;;;;;5094631;28;20035;-66
2023/10/15 05:59:49;;;;;;;6.78;3.17;;;;;;;;;;5102000;27;20110;-66
2023/10/15 06:02:16;;;;;;;4.65;2.58;;;;;;;;;;5092004;28;20113;-66
2023/10/15 06:04:46;;;;;;;3.67;2.78;;;;;;;;;;5095420;28;20260;-66
2023/10/15 06:07:13;;;;;;;4.88;3.05;;;;;;;;;;5095037;28;20415;-66
2023/10/15 06:09:39;;;;;;;3.65;2.65;;;;;;;;;;5096871;28;20034;-66
2023/10/15 06:12:05;;;;;;;4.47;3.03;;;;;;;;;;5095856;28;20031;-65
2023/10/15 06:14:32;;;;;;;5.95;3.03;;;;;;;;;;5095409;27;22091;-66
2023/10/15 06:16:59;;;;;;;6.95;2.50;;;;;;;;;;5097952;28;20042;-67
2023/10/15 06:19:25;;;;;;;4.95;2.97;;;;;;;;;;5097556;28;20479;-66
2023/10/15 06:21:52;;;;;;;6.45;2.97;;;;;;;;;;5097029;28;20027;-66
2023/10/15 06:24:18;;;;;;;3.35;2.50;;;;;;;;;;5096322;28;20028;-66
2023/10/15 06:26:44;;;;;;;7.40;2.85;;;;;;;;;;5093702;27;20032;-66
2023/10/15 06:29:10;;;;;;;3.10;2.72;;;;;;;;;;5093395;28;20027;-65
2023/10/15 06:31:37;;;;;;;6.47;3.40;;;;;;;;;;5096500;28;20024;-67
2023/10/15 06:34:04;;;;;;;3.28;2.55;;;;;;;;;;5095362;28;20789;-71
2023/10/15 06:36:30;;;;;;;8.35;2.88;;;;;;;;;;5098850;28;20027;-65
2023/10/15 06:39:00;;;;;;;4.50;2.60;;;;;;;;;;5095781;28;20048;-65
2023/10/15 06:41:28;;;;;;;6.97;3.00;;;;;;;;;;5095756;28;20126;-66
2023/10/15 06:43:54;;;;;;;6.88;2.90;;;;;;;;;;5098804;28;20030;-66
2023/10/15 06:46:23;;;;;;;4.63;3.28;;;;;;;;;;5099900;28;20020;-65
2023/10/15 06:48:51;;;;;;;4.20;2.97;;;;;;;;;;5096587;28;20034;-66
2023/10/15 06:51:17;;;;;;;3.88;3.08;;;;;;;;;;5096737;28;20434;-67
2023/10/15 06:53:44;;;;;;;3.35;2.97;;;;;;;;;;5097745;28;20028;-66
2023/10/15 06:56:10;;;;;;;5.43;3.58;;;;;;;;;;5098944;28;20035;-69
2023/10/15 06:58:37;;;;;;;6.40;3.33;;;;;;;;;;5098543;28;20024;-66
2023/10/15 07:01:06;;;;;;;8.27;2.85;;;;;;;;;;5096888;28;20031;-67
2023/10/15 07:03:33;;;;;;;5.50;3.30;;;;;;;;;;5092919;28;20047;-67
2023/10/15 07:05:59;;;;;;;6.40;3.20;;;;;;;;;;5094110;28;20028;-66
2023/10/15 07:08:25;;;;;;;5.38;3.42;;;;;;;;;;5094103;28;20543;-67
2023/10/15 07:10:53;;;;;;;7.03;3.53;;;;;;;;;;5093657;28;20034;-65
2023/10/15 07:13:19;;;;;;;5.28;3.33;;;;;;;;;;5096851;28;20034;-66
2023/10/15 07:15:46;;;;;;;4.97;3.25;;;;;;;;;;5078699;28;20120;-67
2023/10/15 07:18:12;;;;;;;6.32;3.22;;;;;;;;;;5092690;28;20107;-66
2023/10/15 07:20:39;;;;;;;4.18;3.20;;;;;;;;;;5092680;28;20043;-65
2023/10/15 07:23:05;;;;;;;9.07;3.83;;;;;;;;;;5094743;28;20745;-65
2023/10/15 07:25:35;;;;;;;5.07;3.75;;;;;;;;;;5097427;28;20040;-66
2023/10/15 07:28:01;;;;;;;6.32;3.35;;;;;;;;;;5093828;28;20224;-65
2023/10/15 07:30:28;;;;;;;3.50;2.75;;;;;;;;;;5093951;28;20608;-65
2023/10/15 07:32:57;;;;;;;7.00;3.58;;;;;;;;;;5092731;28;20027;-66
2023/10/15 07:35:25;;;;;;;5.32;3.60;;;;;;;;;;5094815;28;20512;-66
2023/10/15 07:37:52;;;;;;;6.60;3.30;;;;;;;;;;5092122;28;20278;-66
2023/10/15 07:40:19;;;;;;;7.65;3.60;;;;;;;;;;5102771;28;20136;-66
2023/10/15 07:42:48;;;;;;;6.00;4.43;;;;;;;;;;5094169;28;20472;-66
2023/10/15 07:45:14;;;;;;;6.60;3.50;;;;;;;;;;5097811;28;20027;-66
2023/10/15 07:47:40;;;;;;;4.80;3.13;;;;;;;;;;5098459;28;20035;-65
2023/10/15 07:50:12;;;;;;;4.90;3.45;;;;;;;;;;5099228;27;20036;-66
2023/10/15 07:52:39;;;;;;;9.00;3.80;;;;;;;;;;5098143;28;20438;-65
2023/10/15 07:55:10;;;;;;;5.32;3.83;;;;;;;;;;5100886;27;20038;-66
2023/10/15 07:57:39;;;;;;;4.90;3.40;;;;;;;;;;5096142;28;20030;-66
2023/10/15 08:00:07;;;;;;;5.40;3.42;;;;;;;;;;5104731;27;20031;-66
2023/10/15 08:02:35;;;;;;;8.13;4.20;;;;;;;;;;5095922;28;20024;-66
2023/10/15 08:05:01;;;;;;;5.70;3.90;;;;;;;;;;5102053;27;20377;-66
2023/10/15 08:07:28;;;;;;;9.20;4.30;;;;;;;;;;5094040;28;20028;-66
2023/10/15 08:09:57;;;;;;;8.98;4.57;;;;;;;;;;5087358;28;20028;-66
2023/10/15 08:12:26;;;;;;;9.85;4.18;;;;;;;;;;5097556;28;20031;-66
2023/10/15 08:14:52;;;;;;;5.80;3.85;;;;;;;;;;5100405;27;20088;-68
2023/10/15 08:17:18;;;;;;;24.75;4.40;;;;;;;;;;5110125;28;20028;-67
2023/10/15 08:19:44;;;;;;;6.38;4.30;;;;;;;;;;5105920;27;20111;-64
2023/10/15 08:22:12;;;;;;;14.45;3.58;;;;;;;;;;5100946;28;20030;-66
2023/10/15 08:24:38;;;;;;;8.82;4.40;;;;;;;;;;5095733;27;20015;-69
2023/10/15 08:27:07;;;;;;;14.63;4.03;;;;;;;;;;5095614;28;20292;-69
2023/10/15 08:29:34;;;;;;;7.22;3.92;;;;;;;;;;5097625;27;20551;-68
2023/10/15 08:32:01;;;;;;;13.80;4.25;;;;;;;;;;5096128;28;21766;-69
2023/10/15 08:34:28;;;;;;;14.18;3.90;;;;;;;;;;5094826;28;20032;-68
2023/10/15 08:36:54;;;;;;;6.18;3.45;;;;;;;;;;5095977;28;20372;-68
2023/10/15 08:39:23;;;;;;;13.32;3.92;;;;;;;;;;5102291;27;20140;-69
2023/10/15 08:41:54;;;;;;;7.38;3.53;;;;;;;;;;5099596;28;20436;-65
2023/10/15 08:44:20;;;;;;;11.65;3.92;;;;;;;;;;5103406;27;20367;-65
2023/10/15 08:46:50;;;;;;;10.35;4.10;;;;;;;;;;5100995;28;20019;-67
2023/10/15 08:49:16;;;;;;;7.55;3.75;;;;;;;;;;5102605;27;20057;-68
2023/10/15 08:51:44;;;;;;;5.32;4.28;;;;;;;;;;5099655;28;20011;-65
2023/10/15 08:54:14;;;;;;;6.93;3.70;;;;;;;;;;5101414;27;20553;-66
2023/10/15 08:56:43;;;;;;;6.22;3.90;;;;;;;;;;5100845;28;20038;-66
2023/10/15 08:59:09;;;;;;;6.93;4.10;;;;;;;;;;5103498;27;20019;-65
2023/10/15 09:01:42;;;;;;;8.30;4.40;;;;;;;;;;5097839;28;20031;-66
2023/10/15 09:04:09;;;;;;;7.25;3.80;;;;;;;;;;5101176;28;20664;-66
2023/10/15 09:06:36;;;;;;;4.95;3.47;;;;;;;;;;5100329;27;20026;-66
2023/10/15 09:09:03;;;;;;;4.43;3.75;;;;;;;;;;5099438;28;20020;-66
2023/10/15 09:11:29;;;;;;;5.93;4.07;;;;;;;;;;5096080;28;20519;-66
2023/10/15 09:13:58;;;;;;;5.68;4.68;;;;;;;;;;5104841;28;20040;-67
2023/10/15 09:16:28;;;;;;;10.45;6.80;;;;;;;;;;5102886;27;20038;-67
2023/10/15 09:18:55;;;;;;;8.38;4.22;;;;;;;;;;5116489;27;20038;-66
2023/10/15 09:21:24;;;;;;;6.32;3.88;;;;;;;;;;5098595;28;20043;-66
2023/10/15 09:23:52;;;;;;;10.07;5.38;;;;;;;;;;5101582;27;20035;-71
2023/10/15 09:26:18;;;;;;;7.25;5.72;;;;;;;;;;5094548;28;20605;-65
2023/10/15 09:28:45;;;;;;;7.18;5.75;;;;;;;;;;5094439;28;20063;-65
2023/10/15 09:31:11;;;;;;;7.90;5.07;;;;;;;;;;5101687;27;20023;-66
2023/10/15 09:33:38;;;;;;;9.18;7.13;;;;;;;;;;5095315;28;20028;-66
2023/10/15 09:36:08;;;;;;;8.27;6.35;;;;;;;;;;5098555;28;20023;-66
2023/10/15 09:38:35;;;;;;;11.35;7.05;;;;;;;;;;5096224;28;20623;-66
2023/10/15 09:41:02;;;;;;;5.53;4.30;;;;;;;;;;5099297;28;20053;-66
2023/10/15 09:43:31;;;;;;;5.88;3.97;;;;;;;;;;5095797;28;20109;-66
2023/10/15 09:46:00;;;;;;;23.67;11.57;;;;;;;;;;5098936;28;20054;-66
2023/10/15 09:48:26;;;;;;;86.80;32.30;;;;;;;;;;5096880;28;20028;-66
2023/10/15 09:50:57;;;;;;;12.05;6.13;;;;;;;;;;5098968;28;20080;-65
2023/10/15 09:53:34;;;;;;;21.35;12.63;;;;;;;;;;5097842;28;20456;-66
2023/10/15 09:56:07;;;;;;;15.85;9.52;;;;;;;;;;5100621;27;20308;-66
2023/10/15 09:58:34;;;;;;;12.07;7.80;;;;;;;;;;5095500;28;20387;-66
2023/10/15 10:01:28;;;;;;;15.32;9.75;;;;;;;;;;5099810;28;20096;-64
2023/10/15 10:04:05;;;;;;;8.23;5.07;;;;;;;;;;5087521;28;20144;-66
2023/10/15 10:06:50;;;;;;;19.15;10.95;;;;;;;;;;5097312;28;20024;-65
2023/10/15 10:09:16;;;;;;;11.70;7.25;;;;;;;;;;5094094;28;20045;-66
2023/10/15 10:11:45;;;;;;;6.65;3.42;;;;;;;;;;5095855;28;20722;-67
2023/10/15 10:14:29;;;;;;;6.45;3.75;;;;;;;;;;5099139;28;20859;-66
2023/10/15 10:16:55;;;;;;;7.03;4.18;;;;;;;;;;5096835;28;20066;-68
2023/10/15 10:19:22;;;;;;;5.65;3.42;;;;;;;;;;5097584;28;20873;-68
2023/10/15 10:21:48;;;;;;;3.85;3.10;;;;;;;;;;5095960;28;20026;-69
2023/10/15 10:24:17;;;;;;;5.68;2.80;;;;;;;;;;5098866;28;20449;-68
2023/10/15 10:26:48;;;;;;;6.75;2.40;;;;;;;;;;5099400;27;20024;-68
2023/10/15 10:29:14;;;;;;;5.55;3.53;;;;;;;;;;5089703;28;20058;-68
2023/10/15 10:31:41;;;;;;;4.53;2.88;;;;;;;;;;5098111;27;20039;-67
2023/10/15 10:34:07;;;;;;;4.63;3.05;;;;;;;;;;5100369;27;20066;-69
2023/10/15 10:36:41;;;;;;;9.38;3.97;;;;;;;;;;5099928;27;20161;-67
2023/10/15 10:39:18;;;;;;;4.07;3.17;;;;;;;;;;5099650;28;20039;-68
2023/10/15 10:41:49;;;;;;;5.05;2.60;;;;;;;;;;5098352;28;20443;-68
2023/10/15 10:44:35;;;;;;;3.15;2.60;;;;;;;;;;5098575;28;20039;-68
2023/10/15 10:47:16;;;;;;;6.07;3.70;;;;;;;;;;5099246;27;20672;-68
2023/10/15 10:49:48;;;;;;;11.68;4.28;;;;;;;;;;5099114;28;20063;-67
2023/10/15 10:52:17;;;;;;;7.30;3.97;;;;;;;;;;5095317;28;20031;-68
2023/10/15 10:54:45;;;;;;;4.32;2.70;;;;;;;;;;5100528;28;20028;-68
2023/10/15 10:57:11;;;;;;;5.20;2.65;;;;;;;;;;5093073;28;20048;-67
2023/10/15 10:59:39;;;;;;;3.92;2.70;;;;;;;;;;5097462;28;20016;-68
2023/10/15 11:02:06;;;;;;;3.80;2.40;;;;;;;;;;5084951;28;20025;-68
2023/10/15 11:04:33;;;;;;;5.63;2.38;;;;;;;;;;5097673;28;20036;-68
2023/10/15 11:06:59;;;;;;;6.60;2.58;;;;;;;;;;5095977;28;20039;-68
2023/10/15 11:09:26;;;;;;;3.38;2.65;;;;;;;;;;5100814;28;20463;-68
2023/10/15 11:11:53;;;;;;;7.90;2.53;;;;;;;;;;5096867;28;20023;-68
2023/10/15 11:14:25;;;;;;;4.93;3.03;;;;;;;;;;5096747;28;20060;-68
2023/10/15 11:16:51;;;;;;;3.80;2.15;;;;;;;;;;5099089;28;20036;-68
2023/10/15 11:19:22;;;;;;;3.78;2.08;;;;;;;;;;5094632;28;20027;-68
2023/10/15 11:21:51;;;;;;;6.15;2.00;;;;;;;;;;5094451;28;20057;-67
2023/10/15 11:24:18;;;;;;;8.50;6.30;;;;;;;;;;5091372;28;20031;-68
2023/10/15 11:26:44;;;;;;;5.55;2.30;;;;;;;;;;5089260;28;20344;-67
2023/10/15 11:29:15;;;;;;;3.22;1.83;;;;;;;;;;5101506;28;20062;-67
2023/10/15 11:31:44;;;;;;;3.55;2.10;;;;;;;;;;5100922;28;20111;-67
2023/10/15 11:34:22;;;;;;;5.20;2.35;;;;;;;;;;5095189;28;20039;-67
2023/10/15 11:36:49;;;;;;;3.30;1.90;;;;;;;;;;5094426;28;20024;-67
2023/10/15 11:39:25;;;;;;;2.97;2.00;;;;;;;;;;5092440;27;20089;-68
2023/10/15 11:41:52;;;;;;;4.03;2.00;;;;;;;;;;5090777;27;20422;-67
2023/10/15 11:44:30;;;;;;;3.50;1.70;;;;;;;;;;5106869;27;20566;-65
2023/10/15 11:46:57;;;;;;;4.35;2.50;;;;;;;;;;5097976;27;20043;-66
2023/10/15 11:49:24;;;;;;;4.15;2.03;;;;;;;;;;5094877;28;20028;-67
2023/10/15 11:51:55;;;;;;;2.83;1.90;;;;;;;;;;5097562;28;20043;-67
2023/10/15 11:54:23;;;;;;;3.95;2.55;;;;;;;;;;5094708;27;20070;-66
2023/10/15 11:56:54;;;;;;;2.03;1.70;;;;;;;;;;5100903;28;20032;-67
2023/10/15 11:59:21;;;;;;;5.70;1.92;;;;;;;;;;5095357;27;20711;-67
2023/10/15 12:01:51;;;;;;;2.38;1.85;;;;;;;;;;5095786;28;20061;-67
2023/10/15 12:04:19;;;;;;;4.32;1.92;;;;;;;;;;5091314;28;20066;-67
2023/10/15 12:06:45;;;;;;;5.25;2.65;;;;;;;;;;5098631;27;20442;-66
2023/10/15 12:09:16;;;;;;;3.90;2.00;;;;;;;;;;5101067;28;20028;-66
2023/10/15 12:11:44;;;;;;;2.95;1.80;;;;;;;;;;5101824;28;20028;-69
2023/10/15 12:14:11;;;;;;;2.70;2.20;;;;;;;;;;5098912;28;20027;-70
2023/10/15 12:16:41;;;;;;;2.97;1.90;;;;;;;;;;5103318;28;20062;-70
2023/10/15 12:19:10;;;;;;;4.88;2.10;;;;;;;;;;5100979;28;20024;-67
2023/10/15 12:21:40;;;;;;;4.38;2.05;;;;;;;;;;5095203;28;20031;-68
2023/10/15 12:24:13;;;;;;;3.72;2.10;;;;;;;;;;5094813;28;20030;-68
2023/10/15 12:26:40;;;;;;;2.70;2.03;;;;;;;;;;5097143;28;20709;-68
2023/10/15 12:29:06;;;;;;;3.25;2.30;;;;;;;;;;5092173;28;20020;-69
2023/10/15 12:31:33;;;;;;;2.60;1.90;;;;;;;;;;5100475;28;20023;-69
2023/10/15 12:34:02;;;;;;;3.70;1.90;;;;;;;;;;5097115;28;20088;-69
2023/10/15 12:36:28;;;;;;;3.25;1.88;;;;;;;;;;5098240;28;20055;-69
2023/10/15 12:38:56;;;;;;;4.32;2.90;;;;;;;;;;5107699;27;20128;-70
2023/10/15 12:41:25;;;;;;;4.35;1.90;;;;;;;;;;5101701;27;20478;-69
2023/10/15 12:43:58;;;;;;;3.22;1.70;;;;;;;;;;5102049;28;20032;-69
2023/10/15 12:46:24;;;;;;;2.72;1.80;;;;;;;;;;5101967;28;20032;-69
2023/10/15 12:48:52;;;;;;;2.40;1.92;;;;;;;;;;5098268;27;20564;-68
2023/10/15 12:51:18;;;;;;;4.70;1.90;;;;;;;;;;5097403;27;20683;-69
2023/10/15 12:53:44;;;;;;;4.57;2.10;;;;;;;;;;5101434;27;20032;-68
2023/10/15 12:56:11;;;;;;;3.28;1.90;;;;;;;;;;5100242;28;20111;-69
2023/10/15 12:58:37;;;;;;;3.35;1.90;;;;;;;;;;5103176;28;20038;-68
2023/10/15 13:01:05;;;;;;;2.88;1.83;;;;;;;;;;5095598;28;20034;-69
2023/10/15 13:03:33;;;;;;;3.55;1.90;;;;;;;;;;5093711;28;20250;-69
2023/10/15 13:06:00;;;;;;;3.17;2.20;;;;;;;;;;5101453;28;20382;-69
2023/10/15 13:08:26;;;;;;;3.67;2.03;;;;;;;;;;5097196;28;20035;-69
2023/10/15 13:10:52;;;;;;;2.97;2.00;;;;;;;;;;5103633;27;20368;-69
2023/10/15 13:13:19;;;;;;;3.08;2.00;;;;;;;;;;5100662;28;20032;-69
2023/10/15 13:15:45;;;;;;;2.03;1.80;;;;;;;;;;5100413;28;20030;-69
2023/10/15 13:18:11;;;;;;;3.17;1.92;;;;;;;;;;5099738;28;20019;-69
2023/10/15 13:20:39;;;;;;;3.15;1.90;;;;;;;;;;5101884;27;20578;-68
2023/10/15 13:23:05;;;;;;;3.65;2.10;;;;;;;;;;5091243;27;20023;-69
2023/10/15 13:25:31;;;;;;;3.15;2.00;;;;;;;;;;5101222;28;20024;-69
2023/10/15 13:27:58;;;;;;;3.83;1.90;;;;;;;;;;5094726;28;20030;-70
2023/10/15 13:30:25;;;;;;;3.03;1.83;;;;;;;;;;5098270;28;20063;-69
2023/10/15 13:32:51;;;;;;;3.45;2.03;;;;;;;;;;5096899;27;20020;-69
2023/10/15 13:35:19;;;;;;;3.05;2.10;;;;;;;;;;5100830;28;20036;-69
2023/10/15 13:37:46;;;;;;;2.22;1.70;;;;;;;;;;5099468;28;20594;-69
2023/10/15 13:40:12;;;;;;;2.92;1.88;;;;;;;;;;5100291;27;20130;-69
2023/10/15 13:42:39;;;;;;;2.50;1.80;;;;;;;;;;5096661;28;20024;-68
2023/10/15 13:45:05;;;;;;;3.92;2.00;;;;;;;;;;5100010;28;20126;-69
2023/10/15 13:47:35;;;;;;;3.30;2.00;;;;;;;;;;5081197;28;20882;-68
2023/10/15 13:50:02;;;;;;;2.38;1.70;;;;;;;;;;5102479;28;20028;-69
2023/10/15 13:52:28;;;;;;;3.05;2.10;;;;;;;;;;5095438;27;20186;-68
2023/10/15 13:54:54;;;;;;;4.10;1.80;;;;;;;;;;5098046;27;20043;-69
2023/10/15 13:57:20;;;;;;;2.85;2.00;;;;;;;;;;5102087;28;20024;-68
2023/10/15 13:59:47;;;;;;;4.90;1.90;;;;;;;;;;5093611;28;20306;-68
2023/10/15 14:02:15;;;;;;;2.85;1.90;;;;;;;;;;5096826;28;20080;-69
2023/10/15 14:04:43;;;;;;;5.88;2.20;;;;;;;;;;5103951;28;20157;-67
2023/10/15 14:07:09;;;;;;;2.65;2.03;;;;;;;;;;5095079;28;20028;-64
2023/10/15 14:09:37;;;;;;;4.28;2.20;;;;;;;;;;5093663;28;20112;-64
2023/10/15 14:12:04;;;;;;;4.10;2.13;;;;;;;;;;5096147;28;20019;-64
2023/10/15 14:14:31;;;;;;;4.15;2.20;;;;;;;;;;5097444;28;20052;-64
2023/10/15 14:16:57;;;;;;;1.92;1.73;;;;;;;;;;5100441;28;20031;-64
2023/10/15 14:19:23;;;;;;;2.90;1.77;;;;;;;;;;5100527;27;20689;-63
2023/10/15 14:21:49;;;;;;;4.50;2.00;;;;;;;;;;5095987;28;20411;-63
2023/10/15 14:24:15;;;;;;;4.40;1.80;;;;;;;;;;5097854;28;20516;-64
2023/10/15 14:26:41;;;;;;;2.83;1.90;;;;;;;;;;5094120;28;20023;-63
2023/10/15 14:29:08;;;;;;;2.58;1.80;;;;;;;;;;5101416;28;20464;-63
2023/10/15 14:31:34;;;;;;;2.58;1.80;;;;;;;;;;5096925;28;20032;-63
2023/10/15 14:34:01;;;;;;;6.68;5.53;;;;;;;;;;5098567;27;20411;-63
2023/10/15 14:36:30;;;;;;;5.80;4.47;;;;;;;;;;5100485;27;20035;-63
2023/10/15 14:38:57;;;;;;;5.57;2.38;;;;;;;;;;5095066;28;20051;-63
2023/10/15 14:41:23;;;;;;;2.53;2.10;;;;;;;;;;5086873;28;20032;-63
2023/10/15 14:43:49;;;;;;;4.80;2.10;;;;;;;;;;5101030;28;20023;-63
2023/10/15 14:46:17;;;;;;;3.50;2.45;;;;;;;;;;5097222;27;20468;-63
2023/10/15 14:48:43;;;;;;;3.03;2.53;;;;;;;;;;5099530;28;20035;-63
2023/10/15 14:51:10;;;;;;;5.47;2.67;;;;;;;;;;5098556;28;20028;-63
2023/10/15 14:53:36;;;;;;;5.75;3.30;;;;;;;;;;5099800;28;20038;-63
2023/10/15 14:56:03;;;;;;;7.60;2.75;;;;;;;;;;5095199;28;20063;-63
2023/10/15 14:58:29;;;;;;;7.75;2.80;;;;;;;;;;5095991;28;20058;-63
2023/10/15 15:00:55;;;;;;;2.28;1.90;;;;;;;;;;5100651;28;20144;-62
2023/10/15 15:03:21;;;;;;;4.65;3.30;;;;;;;;;;5099772;28;20031;-63